createdAt,value
2022-12-01T00:09:00.839Z,7.1
2022-12-01T00:23:31.245Z,7.2
2022-12-01T00:38:01.239Z,7.2
2022-12-01T00:52:32.438Z,7
2022-12-01T01:07:04.002Z,7.1
2022-12-01T01:21:36.271Z,6.8
2022-12-01T01:36:04.921Z,7
2022-12-01T01:50:35.481Z,7
2022-12-01T02:05:06.572Z,6.8
2022-12-01T02:19:38.263Z,7.1
2022-12-01T02:34:09.916Z,7
2022-12-01T02:48:39.142Z,7.1
2022-12-01T03:03:10.567Z,6.9
2022-12-01T03:17:41.399Z,6.9
2022-12-01T03:32:12.732Z,7
2022-12-01T03:46:36.315Z,6.8
2022-12-01T04:01:07.972Z,6.9
2022-12-01T04:15:39.234Z,6.6
2022-12-01T04:30:09.393Z,6.7
2022-12-01T04:44:40.407Z,6.7
2022-12-01T04:59:13.573Z,6.6
2022-12-01T05:13:43.075Z,6.4
2022-12-01T05:28:14.101Z,6.4
2022-12-01T05:42:44.675Z,6.3
2022-12-01T05:57:16.845Z,6.3
2022-12-01T06:11:53.050Z,6.2
2022-12-01T06:26:21.025Z,6.1
2022-12-01T06:40:52.355Z,6.2
2022-12-01T06:55:23.856Z,6
2022-12-01T07:09:55.031Z,6.3
2022-12-01T07:24:26.002Z,6.1
2022-12-01T07:38:57.295Z,6.4
2022-12-01T07:53:28.137Z,6.1
2022-12-01T08:08:00.522Z,6.4
2022-12-01T08:22:30.424Z,6.5
2022-12-01T08:37:00.382Z,6.2
2022-12-01T08:51:31.020Z,6.3
2022-12-01T09:06:02.569Z,6.6
2022-12-01T09:20:33.367Z,6.2
2022-12-01T09:35:04.560Z,6.5
2022-12-01T09:49:35.978Z,6.4
2022-12-01T10:04:06.589Z,6.3
2022-12-01T10:18:38.100Z,5.7
2022-12-01T10:33:09.790Z,5.5
2022-12-01T10:47:46.610Z,5.3
2022-12-01T11:02:20.801Z,5.8
2022-12-01T11:16:46.864Z,5.9
2022-12-01T11:31:17.695Z,5.6
2022-12-01T11:45:54.241Z,5.3
2022-12-01T12:00:24.843Z,4.6
2022-12-01T12:14:51.965Z,5
2022-12-01T12:29:22.139Z,4.7
2022-12-01T12:43:53.445Z,4.9
2022-12-01T12:58:30.596Z,5.1
2022-12-01T13:13:03.390Z,5
2022-12-01T13:27:26.676Z,5.2
2022-12-01T13:41:55.761Z,5
2022-12-01T13:56:26.327Z,5.1
2022-12-01T14:10:57.570Z,5.5
2022-12-01T14:25:28.781Z,5.5
2022-12-01T14:40:03.799Z,5.2
2022-12-01T14:54:45.369Z,5.7
2022-12-01T15:09:37.506Z,5.3
2022-12-01T15:38:27.111Z,5
2022-12-01T15:52:56.036Z,4.9
2022-12-01T16:08:12.907Z,4.8
2022-12-01T16:22:27.198Z,4.8
2022-12-01T16:36:53.570Z,5.2
2022-12-01T16:51:58.178Z,5
2022-12-01T17:06:12.342Z,5.1
2022-12-01T17:20:59.649Z,4.8
2022-12-01T17:35:24.436Z,4.7
2022-12-01T17:49:54.189Z,4.9
2022-12-01T18:04:25.118Z,4.7
2022-12-01T18:18:55.545Z,4.5
2022-12-01T18:33:28.677Z,4.3
2022-12-01T18:47:59.244Z,3.9
2022-12-01T19:02:46.533Z,3.7
2022-12-01T19:17:09.573Z,3.8
2022-12-01T19:31:40.405Z,3.6
2022-12-01T19:46:12.816Z,3.6
2022-12-01T20:00:43.802Z,4
2022-12-01T20:15:14.389Z,3.6
2022-12-01T20:29:49.341Z,3.7
2022-12-01T20:44:22.466Z,3.8
2022-12-01T20:58:47.442Z,3.6
2022-12-01T21:13:16.622Z,3.6
2022-12-01T21:27:49.475Z,3.4
2022-12-01T21:42:20.353Z,3.3
2022-12-01T21:56:50.354Z,3.3
2022-12-01T22:11:26.492Z,3.3
2022-12-01T22:25:58.539Z,3.7
2022-12-01T22:40:24.971Z,3.6
2022-12-01T22:54:55.787Z,3.4
2022-12-01T23:09:26.662Z,3.4
2022-12-01T23:23:55.277Z,3.5
2022-12-01T23:38:27.660Z,3.5
2022-12-01T23:52:58.113Z,3.5
